sensor_id;sensor_type;location;lat;lon;timestamp;temperature;humidity
68578;SHT31;61668;45.388;11.784;2023-02-10T00:01:21;-1.22;60.70
68578;SHT31;61668;45.388;11.784;2023-02-10T00:03:51;-1.19;60.70
68578;SHT31;61668;45.388;11.784;2023-02-10T00:06:18;-1.15;60.64
68578;SHT31;61668;45.388;11.784;2023-02-10T00:08:49;-1.12;60.65
68578;SHT31;61668;45.388;11.784;2023-02-10T00:11:17;-1.12;60.70
68578;SHT31;61668;45.388;11.784;2023-02-10T00:13:44;-1.12;60.70
68578;SHT31;61668;45.388;11.784;2023-02-10T00:16:12;-1.14;60.72
68578;SHT31;61668;45.388;11.784;2023-02-10T00:18:40;-1.15;60.82
68578;SHT31;61668;45.388;11.784;2023-02-10T00:21:13;-1.19;60.95
68578;SHT31;61668;45.388;11.784;2023-02-10T00:23:41;-1.21;61.04
68578;SHT31;61668;45.388;11.784;2023-02-10T00:26:09;-1.26;61.16
68578;SHT31;61668;45.388;11.784;2023-02-10T00:28:37;-1.29;61.20
68578;SHT31;61668;45.388;11.784;2023-02-10T00:31:10;-1.33;61.21
68578;SHT31;61668;45.388;11.784;2023-02-10T00:33:39;-1.38;61.25
68578;SHT31;61668;45.388;11.784;2023-02-10T00:36:10;-1.43;61.42
68578;SHT31;61668;45.388;11.784;2023-02-10T00:38:38;-1.50;61.77
68578;SHT31;61668;45.388;11.784;2023-02-10T00:41:06;-1.57;62.06
68578;SHT31;61668;45.388;11.784;2023-02-10T00:43:50;-1.62;62.39
68578;SHT31;61668;45.388;11.784;2023-02-10T00:46:17;-1.67;62.50
68578;SHT31;61668;45.388;11.784;2023-02-10T00:48:46;-1.71;62.56
68578;SHT31;61668;45.388;11.784;2023-02-10T00:51:13;-1.76;62.85
68578;SHT31;61668;45.388;11.784;2023-02-10T00:53:40;-1.80;63.01
68578;SHT31;61668;45.388;11.784;2023-02-10T00:56:06;-1.83;63.11
68578;SHT31;61668;45.388;11.784;2023-02-10T00:58:33;-1.88;63.18
68578;SHT31;61668;45.388;11.784;2023-02-10T01:00:59;-1.90;63.33
68578;SHT31;61668;45.388;11.784;2023-02-10T01:03:25;-1.93;63.46
68578;SHT31;61668;45.388;11.784;2023-02-10T01:05:51;-1.96;63.60
68578;SHT31;61668;45.388;11.784;2023-02-10T01:08:17;-1.97;63.76
68578;SHT31;61668;45.388;11.784;2023-02-10T01:10:44;-1.96;63.80
68578;SHT31;61668;45.388;11.784;2023-02-10T01:13:11;-1.94;63.79
68578;SHT31;61668;45.388;11.784;2023-02-10T01:15:45;-1.93;63.80
68578;SHT31;61668;45.388;11.784;2023-02-10T01:18:12;-1.91;63.78
68578;SHT31;61668;45.388;11.784;2023-02-10T01:20:39;-1.91;63.82
68578;SHT31;61668;45.388;11.784;2023-02-10T01:23:06;-1.93;64.14
68578;SHT31;61668;45.388;11.784;2023-02-10T01:25:33;-1.96;64.35
68578;SHT31;61668;45.388;11.784;2023-02-10T01:28:01;-1.98;64.21
68578;SHT31;61668;45.388;11.784;2023-02-10T01:30:28;-1.99;64.20
68578;SHT31;61668;45.388;11.784;2023-02-10T01:32:54;-2.02;64.34
68578;SHT31;61668;45.388;11.784;2023-02-10T01:35:20;-2.05;64.44
68578;SHT31;61668;45.388;11.784;2023-02-10T01:37:50;-2.08;64.63
68578;SHT31;61668;45.388;11.784;2023-02-10T01:40:23;-2.09;64.83
68578;SHT31;61668;45.388;11.784;2023-02-10T01:42:50;-2.11;64.88
68578;SHT31;61668;45.388;11.784;2023-02-10T01:56:35;-2.23;65.02
68578;SHT31;61668;45.388;11.784;2023-02-10T01:59:01;-2.26;65.04
68578;SHT31;61668;45.388;11.784;2023-02-10T02:01:27;-2.29;65.05
68578;SHT31;61668;45.388;11.784;2023-02-10T02:03:53;-2.32;65.11
68578;SHT31;61668;45.388;11.784;2023-02-10T02:06:19;-2.35;65.19
68578;SHT31;61668;45.388;11.784;2023-02-10T02:08:47;-2.36;65.17
68578;SHT31;61668;45.388;11.784;2023-02-10T02:14:13;-2.36;65.22
68578;SHT31;61668;45.388;11.784;2023-02-10T02:23:24;-2.33;65.40
68578;SHT31;61668;45.388;11.784;2023-02-10T02:34:43;-2.24;65.42
68578;SHT31;61668;45.388;11.784;2023-02-10T02:48:56;-2.42;65.73
68578;SHT31;61668;45.388;11.784;2023-02-10T02:51:56;-2.49;65.82
68578;SHT31;61668;45.388;11.784;2023-02-10T02:54:33;-2.56;65.95
68578;SHT31;61668;45.388;11.784;2023-02-10T03:02:48;-2.70;66.02
68578;SHT31;61668;45.388;11.784;2023-02-10T03:05:21;-2.76;66.25
68578;SHT31;61668;45.388;11.784;2023-02-10T03:07:49;-2.81;66.36
68578;SHT31;61668;45.388;11.784;2023-02-10T03:13:25;-2.91;66.72
68578;SHT31;61668;45.388;11.784;2023-02-10T03:15:51;-2.96;66.81
68578;SHT31;61668;45.388;11.784;2023-02-10T03:18:17;-2.99;66.94
68578;SHT31;61668;45.388;11.784;2023-02-10T03:20:43;-3.01;67.00
68578;SHT31;61668;45.388;11.784;2023-02-10T03:23:09;-3.02;67.03
68578;SHT31;61668;45.388;11.784;2023-02-10T03:25:36;-3.02;67.00
68578;SHT31;61668;45.388;11.784;2023-02-10T03:28:02;-3.02;67.01
68578;SHT31;61668;45.388;11.784;2023-02-10T03:30:30;-3.01;67.10
68578;SHT31;61668;45.388;11.784;2023-02-10T03:32:57;-2.98;67.11
68578;SHT31;61668;45.388;11.784;2023-02-10T03:35:22;-2.96;67.20
68578;SHT31;61668;45.388;11.784;2023-02-10T03:37:48;-2.95;67.20
68578;SHT31;61668;45.388;11.784;2023-02-10T03:40:14;-2.92;67.29
68578;SHT31;61668;45.388;11.784;2023-02-10T03:42:40;-2.89;67.22
68578;SHT31;61668;45.388;11.784;2023-02-10T03:56:26;-2.96;67.68
68578;SHT31;61668;45.388;11.784;2023-02-10T03:58:51;-3.00;67.74
68578;SHT31;61668;45.388;11.784;2023-02-10T04:01:18;-3.04;67.80
68578;SHT31;61668;45.388;11.784;2023-02-10T04:03:44;-3.09;67.80
68578;SHT31;61668;45.388;11.784;2023-02-10T04:06:10;-3.12;67.85
68578;SHT31;61668;45.388;11.784;2023-02-10T04:08:36;-3.18;68.00
68578;SHT31;61668;45.388;11.784;2023-02-10T04:11:03;-3.24;68.18
68578;SHT31;61668;45.388;11.784;2023-02-10T04:13:30;-3.29;68.22
68578;SHT31;61668;45.388;11.784;2023-02-10T04:15:59;-3.32;68.30
68578;SHT31;61668;45.388;11.784;2023-02-10T04:18:31;-3.33;68.41
68578;SHT31;61668;45.388;11.784;2023-02-10T04:20:58;-3.34;68.56
68578;SHT31;61668;45.388;11.784;2023-02-10T04:23:26;-3.36;68.70
68578;SHT31;61668;45.388;11.784;2023-02-10T04:25:51;-3.34;68.78
68578;SHT31;61668;45.388;11.784;2023-02-10T04:28:18;-3.30;68.74
68578;SHT31;61668;45.388;11.784;2023-02-10T04:30:44;-3.25;68.77
68578;SHT31;61668;45.388;11.784;2023-02-10T04:33:10;-3.19;68.80
68578;SHT31;61668;45.388;11.784;2023-02-10T04:35:35;-3.12;68.80
68578;SHT31;61668;45.388;11.784;2023-02-10T04:38:01;-3.09;68.81
68578;SHT31;61668;45.388;11.784;2023-02-10T04:40:29;-3.08;68.84
68578;SHT31;61668;45.388;11.784;2023-02-10T04:42:55;-3.07;68.90
68578;SHT31;61668;45.388;11.784;2023-02-10T04:45:21;-3.06;69.02
68578;SHT31;61668;45.388;11.784;2023-02-10T04:47:47;-3.06;68.90
68578;SHT31;61668;45.388;11.784;2023-02-10T04:50:13;-3.07;68.90
68578;SHT31;61668;45.388;11.784;2023-02-10T04:52:38;-3.09;68.89
68578;SHT31;61668;45.388;11.784;2023-02-10T04:55:04;-3.13;68.87
68578;SHT31;61668;45.388;11.784;2023-02-10T04:57:30;-3.17;68.86
68578;SHT31;61668;45.388;11.784;2023-02-10T04:59:56;-3.22;69.03
68578;SHT31;61668;45.388;11.784;2023-02-10T05:02:21;-3.26;69.18
68578;SHT31;61668;45.388;11.784;2023-02-10T05:04:47;-3.31;69.31
68578;SHT31;61668;45.388;11.784;2023-02-10T05:07:13;-3.36;69.41
68578;SHT31;61668;45.388;11.784;2023-02-10T05:09:38;-3.41;69.53
68578;SHT31;61668;45.388;11.784;2023-02-10T05:12:04;-3.45;69.70
68578;SHT31;61668;45.388;11.784;2023-02-10T05:14:30;-3.48;69.93
68578;SHT31;61668;45.388;11.784;2023-02-10T05:28:14;-3.45;70.20
68578;SHT31;61668;45.388;11.784;2023-02-10T05:30:40;-3.44;70.21
68578;SHT31;61668;45.388;11.784;2023-02-10T05:33:06;-3.40;70.22
68578;SHT31;61668;45.388;11.784;2023-02-10T05:35:31;-3.39;70.11
68578;SHT31;61668;45.388;11.784;2023-02-10T05:37:57;-3.38;70.18
68578;SHT31;61668;45.388;11.784;2023-02-10T05:40:22;-3.35;70.28
68578;SHT31;61668;45.388;11.784;2023-02-10T05:42:48;-3.34;70.22
68578;SHT31;61668;45.388;11.784;2023-02-10T05:45:14;-3.36;70.10
68578;SHT31;61668;45.388;11.784;2023-02-10T05:47:40;-3.40;70.14
68578;SHT31;61668;45.388;11.784;2023-02-10T05:50:06;-3.44;70.06
68578;SHT31;61668;45.388;11.784;2023-02-10T05:52:32;-3.50;69.91
68578;SHT31;61668;45.388;11.784;2023-02-10T05:54:58;-3.54;69.90
68578;SHT31;61668;45.388;11.784;2023-02-10T05:57:23;-3.61;69.90
68578;SHT31;61668;45.388;11.784;2023-02-10T05:59:49;-3.67;70.00
68578;SHT31;61668;45.388;11.784;2023-02-10T06:02:14;-3.72;70.02
68578;SHT31;61668;45.388;11.784;2023-02-10T06:04:40;-3.77;70.20
68578;SHT31;61668;45.388;11.784;2023-02-10T06:07:06;-3.83;70.34
68578;SHT31;61668;45.388;11.784;2023-02-10T06:09:31;-3.89;70.48
68578;SHT31;61668;45.388;11.784;2023-02-10T06:11:57;-3.94;70.60
68578;SHT31;61668;45.388;11.784;2023-02-10T06:14:22;-3.98;70.83
68578;SHT31;61668;45.388;11.784;2023-02-10T06:16:48;-4.00;71.18
68578;SHT31;61668;45.388;11.784;2023-02-10T06:19:14;-3.98;71.51
68578;SHT31;61668;45.388;11.784;2023-02-10T06:21:39;-3.94;71.77
68578;SHT31;61668;45.388;11.784;2023-02-10T06:24:05;-3.89;71.94
68578;SHT31;61668;45.388;11.784;2023-02-10T06:26:30;-3.85;72.10
68578;SHT31;61668;45.388;11.784;2023-02-10T06:28:56;-3.80;72.10
68578;SHT31;61668;45.388;11.784;2023-02-10T06:31:22;-3.75;72.06
68578;SHT31;61668;45.388;11.784;2023-02-10T06:33:49;-3.73;72.00
68578;SHT31;61668;45.388;11.784;2023-02-10T06:36:14;-3.71;71.88
68578;SHT31;61668;45.388;11.784;2023-02-10T06:38:40;-3.70;71.86
68578;SHT31;61668;45.388;11.784;2023-02-10T06:41:05;-3.70;71.77
68578;SHT31;61668;45.388;11.784;2023-02-10T06:43:31;-3.71;71.72
68578;SHT31;61668;45.388;11.784;2023-02-10T06:45:58;-3.74;71.82
68578;SHT31;61668;45.388;11.784;2023-02-10T06:48:24;-3.78;71.90
68578;SHT31;61668;45.388;11.784;2023-02-10T06:50:51;-3.79;71.98
68578;SHT31;61668;45.388;11.784;2023-02-10T06:53:17;-3.81;72.00
68578;SHT31;61668;45.388;11.784;2023-02-10T06:55:44;-3.82;72.04
68578;SHT31;61668;45.388;11.784;2023-02-10T06:58:10;-3.83;72.11
68578;SHT31;61668;45.388;11.784;2023-02-10T07:00:35;-3.83;72.19
68578;SHT31;61668;45.388;11.784;2023-02-10T07:03:02;-3.82;72.20
68578;SHT31;61668;45.388;11.784;2023-02-10T07:05:28;-3.78;72.28
68578;SHT31;61668;45.388;11.784;2023-02-10T07:07:53;-3.71;72.30
68578;SHT31;61668;45.388;11.784;2023-02-10T07:10:20;-3.62;72.29
68578;SHT31;61668;45.388;11.784;2023-02-10T07:12:46;-3.53;72.19
68578;SHT31;61668;45.388;11.784;2023-02-10T07:15:12;-3.42;72.10
68578;SHT31;61668;45.388;11.784;2023-02-10T07:17:38;-3.32;71.97
68578;SHT31;61668;45.388;11.784;2023-02-10T07:20:05;-3.25;71.86
68578;SHT31;61668;45.388;11.784;2023-02-10T07:22:31;-3.19;71.87
68578;SHT31;61668;45.388;11.784;2023-02-10T07:24:56;-3.08;71.90
68578;SHT31;61668;45.388;11.784;2023-02-10T07:27:22;-2.87;71.72
68578;SHT31;61668;45.388;11.784;2023-02-10T07:29:48;-2.64;71.51
68578;SHT31;61668;45.388;11.784;2023-02-10T07:32:14;-2.34;71.16
68578;SHT31;61668;45.388;11.784;2023-02-10T07:34:39;-2.04;70.72
68578;SHT31;61668;45.388;11.784;2023-02-10T07:37:05;-1.73;70.22
68578;SHT31;61668;45.388;11.784;2023-02-10T07:39:32;-1.42;69.75
68578;SHT31;61668;45.388;11.784;2023-02-10T07:41:58;-1.05;69.11
68578;SHT31;61668;45.388;11.784;2023-02-10T07:44:24;-0.67;68.40
68578;SHT31;61668;45.388;11.784;2023-02-10T07:46:53;-0.29;67.81
68578;SHT31;61668;45.388;11.784;2023-02-10T07:49:19;0.10;67.07
68578;SHT31;61668;45.388;11.784;2023-02-10T07:51:45;0.49;66.26
68578;SHT31;61668;45.388;11.784;2023-02-10T07:54:11;0.92;65.57
68578;SHT31;61668;45.388;11.784;2023-02-10T07:56:37;1.30;64.53
68578;SHT31;61668;45.388;11.784;2023-02-10T07:59:03;1.66;63.61
68578;SHT31;61668;45.388;11.784;2023-02-10T08:01:29;2.02;62.48
68578;SHT31;61668;45.388;11.784;2023-02-10T08:03:54;2.36;61.62
68578;SHT31;61668;45.388;11.784;2023-02-10T08:06:23;2.65;60.86
68578;SHT31;61668;45.388;11.784;2023-02-10T08:08:50;2.94;59.79
68578;SHT31;61668;45.388;11.784;2023-02-10T08:11:17;3.25;59.02
68578;SHT31;61668;45.388;11.784;2023-02-10T08:13:44;3.56;58.45
68578;SHT31;61668;45.388;11.784;2023-02-10T08:16:10;3.85;57.74
68578;SHT31;61668;45.388;11.784;2023-02-10T08:18:39;4.13;56.89
68578;SHT31;61668;45.388;11.784;2023-02-10T08:21:06;4.42;55.51
68578;SHT31;61668;45.388;11.784;2023-02-10T08:23:33;4.64;54.46
68578;SHT31;61668;45.388;11.784;2023-02-10T08:26:07;4.85;53.76
68578;SHT31;61668;45.388;11.784;2023-02-10T08:28:35;5.06;52.53
68578;SHT31;61668;45.388;11.784;2023-02-10T08:31:03;5.29;52.63
68578;SHT31;61668;45.388;11.784;2023-02-10T08:33:35;5.60;52.12
68578;SHT31;61668;45.388;11.784;2023-02-10T08:36:06;5.84;50.40
68578;SHT31;61668;45.388;11.784;2023-02-10T08:38:35;6.04;49.93
68578;SHT31;61668;45.388;11.784;2023-02-10T08:41:01;6.28;49.56
68578;SHT31;61668;45.388;11.784;2023-02-10T08:43:27;6.58;49.24
68578;SHT31;61668;45.388;11.784;2023-02-10T08:45:57;6.89;48.47
68578;SHT31;61668;45.388;11.784;2023-02-10T08:48:25;7.18;47.56
68578;SHT31;61668;45.388;11.784;2023-02-10T08:50:51;7.52;47.55
68578;SHT31;61668;45.388;11.784;2023-02-10T08:53:18;7.89;47.22
68578;SHT31;61668;45.388;11.784;2023-02-10T08:55:56;8.26;46.45
68578;SHT31;61668;45.388;11.784;2023-02-10T08:58:25;8.61;45.89
68578;SHT31;61668;45.388;11.784;2023-02-10T09:00:52;8.92;44.82
68578;SHT31;61668;45.388;11.784;2023-02-10T09:03:18;9.21;43.60
68578;SHT31;61668;45.388;11.784;2023-02-10T09:05:44;9.46;43.09
68578;SHT31;61668;45.388;11.784;2023-02-10T09:08:11;9.70;42.80
68578;SHT31;61668;45.388;11.784;2023-02-10T09:10:38;9.93;41.89
68578;SHT31;61668;45.388;11.784;2023-02-10T09:13:05;10.11;41.71
68578;SHT31;61668;45.388;11.784;2023-02-10T09:15:35;10.36;41.32
68578;SHT31;61668;45.388;11.784;2023-02-10T09:18:02;10.67;40.93
68578;SHT31;61668;45.388;11.784;2023-02-10T09:20:29;10.94;39.92
68578;SHT31;61668;45.388;11.784;2023-02-10T09:22:55;11.11;39.11
68578;SHT31;61668;45.388;11.784;2023-02-10T09:25:21;11.32;38.89
68578;SHT31;61668;45.388;11.784;2023-02-10T09:27:47;11.58;38.44
68578;SHT31;61668;45.388;11.784;2023-02-10T09:30:13;11.75;37.62
68578;SHT31;61668;45.388;11.784;2023-02-10T09:32:39;11.91;37.87
68578;SHT31;61668;45.388;11.784;2023-02-10T09:35:05;12.15;37.16
68578;SHT31;61668;45.388;11.784;2023-02-10T09:37:31;12.25;36.57
68578;SHT31;61668;45.388;11.784;2023-02-10T09:39:56;12.36;36.11
68578;SHT31;61668;45.388;11.784;2023-02-10T09:45:18;12.47;35.80
68578;SHT31;61668;45.388;11.784;2023-02-10T09:53:29;10.69;36.66
68578;SHT31;61668;45.388;11.784;2023-02-10T09:55:57;10.25;37.63
68578;SHT31;61668;45.388;11.784;2023-02-10T10:06:26;8.69;38.99
68578;SHT31;61668;45.388;11.784;2023-02-10T10:09:03;8.42;39.38
68578;SHT31;61668;45.388;11.784;2023-02-10T10:11:38;8.16;40.00
68578;SHT31;61668;45.388;11.784;2023-02-10T10:14:20;7.99;40.38
68578;SHT31;61668;45.388;11.784;2023-02-10T10:31:30;7.15;41.84
68578;SHT31;61668;45.388;11.784;2023-02-10T10:36:47;6.93;41.74
68578;SHT31;61668;45.388;11.784;2023-02-10T10:39:35;6.84;41.99
68578;SHT31;61668;45.388;11.784;2023-02-10T10:44:58;6.72;41.76
68578;SHT31;61668;45.388;11.784;2023-02-10T10:47:38;6.63;41.56
68578;SHT31;61668;45.388;11.784;2023-02-10T10:50:16;6.54;41.72
68578;SHT31;61668;45.388;11.784;2023-02-10T10:52:49;6.46;41.74
68578;SHT31;61668;45.388;11.784;2023-02-10T10:55:19;6.39;42.13
68578;SHT31;61668;45.388;11.784;2023-02-10T10:57:52;6.35;42.04
68578;SHT31;61668;45.388;11.784;2023-02-10T11:00:27;6.33;42.23
68578;SHT31;61668;45.388;11.784;2023-02-10T11:02:56;6.30;41.68
68578;SHT31;61668;45.388;11.784;2023-02-10T11:05:29;6.24;41.79
68578;SHT31;61668;45.388;11.784;2023-02-10T11:08:01;6.24;42.12
68578;SHT31;61668;45.388;11.784;2023-02-10T11:13:19;6.24;42.38
68578;SHT31;61668;45.388;11.784;2023-02-10T11:16:02;6.23;42.31
68578;SHT31;61668;45.388;11.784;2023-02-10T11:18:33;6.24;41.83
68578;SHT31;61668;45.388;11.784;2023-02-10T11:21:07;6.25;41.85
68578;SHT31;61668;45.388;11.784;2023-02-10T11:23:40;6.26;42.08
68578;SHT31;61668;45.388;11.784;2023-02-10T11:26:24;6.26;40.96
68578;SHT31;61668;45.388;11.784;2023-02-10T11:28:52;6.28;40.94
68578;SHT31;61668;45.388;11.784;2023-02-10T11:36:49;6.35;40.25
68578;SHT31;61668;45.388;11.784;2023-02-10T11:41:53;6.39;39.82
68578;SHT31;61668;45.388;11.784;2023-02-10T11:44:22;6.44;39.84
68578;SHT31;61668;45.388;11.784;2023-02-10T11:49:26;6.55;40.06
68578;SHT31;61668;45.388;11.784;2023-02-10T11:51:57;6.62;40.09
68578;SHT31;61668;45.388;11.784;2023-02-10T11:54:25;6.68;39.41
68578;SHT31;61668;45.388;11.784;2023-02-10T11:57:00;6.72;38.73
68578;SHT31;61668;45.388;11.784;2023-02-10T12:00:20;6.78;38.79
68578;SHT31;61668;45.388;11.784;2023-02-10T12:11:33;7.02;37.90
68578;SHT31;61668;45.388;11.784;2023-02-10T12:17:28;7.14;38.48
68578;SHT31;61668;45.388;11.784;2023-02-10T12:20:05;7.21;38.03
68578;SHT31;61668;45.388;11.784;2023-02-10T12:26:12;7.31;37.52
68578;SHT31;61668;45.388;11.784;2023-02-10T12:54:43;7.77;34.34
68578;SHT31;61668;45.388;11.784;2023-02-10T12:57:43;7.83;33.65
68578;SHT31;61668;45.388;11.784;2023-02-10T13:03:07;7.95;33.43
68578;SHT31;61668;45.388;11.784;2023-02-10T13:05:40;8.00;33.07
68578;SHT31;61668;45.388;11.784;2023-02-10T13:08:12;8.05;32.85
68578;SHT31;61668;45.388;11.784;2023-02-10T13:10:50;8.08;32.63
68578;SHT31;61668;45.388;11.784;2023-02-10T13:13:25;8.10;32.51
68578;SHT31;61668;45.388;11.784;2023-02-10T13:15:58;8.12;32.87
68578;SHT31;61668;45.388;11.784;2023-02-10T13:18:35;8.15;33.01
68578;SHT31;61668;45.388;11.784;2023-02-10T13:21:24;8.18;32.77
68578;SHT31;61668;45.388;11.784;2023-02-10T13:24:19;8.23;31.91
68578;SHT31;61668;45.388;11.784;2023-02-10T13:27:45;8.27;32.16
68578;SHT31;61668;45.388;11.784;2023-02-10T13:35:44;8.34;31.85
68578;SHT31;61668;45.388;11.784;2023-02-10T13:40:52;8.39;32.38
68578;SHT31;61668;45.388;11.784;2023-02-10T13:43:44;8.44;32.82
68578;SHT31;61668;45.388;11.784;2023-02-10T13:46:30;8.46;32.66
68578;SHT31;61668;45.388;11.784;2023-02-10T13:48:57;8.48;32.80
68578;SHT31;61668;45.388;11.784;2023-02-10T13:51:29;8.49;32.61
68578;SHT31;61668;45.388;11.784;2023-02-10T13:54:01;8.50;32.67
68578;SHT31;61668;45.388;11.784;2023-02-10T13:56:27;8.50;32.71
68578;SHT31;61668;45.388;11.784;2023-02-10T13:58:57;8.47;32.56
68578;SHT31;61668;45.388;11.784;2023-02-10T14:01:35;8.48;32.75
68578;SHT31;61668;45.388;11.784;2023-02-10T14:06:48;8.49;32.57
68578;SHT31;61668;45.388;11.784;2023-02-10T14:09:35;8.50;33.03
68578;SHT31;61668;45.388;11.784;2023-02-10T14:12:03;8.51;32.88
68578;SHT31;61668;45.388;11.784;2023-02-10T14:14:48;8.52;32.82
68578;SHT31;61668;45.388;11.784;2023-02-10T14:19:47;8.55;32.90
68578;SHT31;61668;45.388;11.784;2023-02-10T14:22:26;8.55;32.90
68578;SHT31;61668;45.388;11.784;2023-02-10T14:27:53;8.58;33.01
68578;SHT31;61668;45.388;11.784;2023-02-10T14:33:24;8.52;32.89
68578;SHT31;61668;45.388;11.784;2023-02-10T14:35:56;8.50;32.60
68578;SHT31;61668;45.388;11.784;2023-02-10T14:38:27;8.48;32.69
68578;SHT31;61668;45.388;11.784;2023-02-10T14:40:56;8.46;32.86
68578;SHT31;61668;45.388;11.784;2023-02-10T14:43:28;8.43;32.97
68578;SHT31;61668;45.388;11.784;2023-02-10T14:45:57;8.41;32.90
68578;SHT31;61668;45.388;11.784;2023-02-10T14:48:26;8.40;32.81
68578;SHT31;61668;45.388;11.784;2023-02-10T14:51:01;8.41;32.84
68578;SHT31;61668;45.388;11.784;2023-02-10T14:53:27;8.41;32.91
68578;SHT31;61668;45.388;11.784;2023-02-10T14:55:54;8.40;32.95
68578;SHT31;61668;45.388;11.784;2023-02-10T14:58:23;8.39;32.79
68578;SHT31;61668;45.388;11.784;2023-02-10T15:01:05;8.38;32.43
68578;SHT31;61668;45.388;11.784;2023-02-10T15:03:34;8.37;32.52
68578;SHT31;61668;45.388;11.784;2023-02-10T15:06:00;8.34;32.14
68578;SHT31;61668;45.388;11.784;2023-02-10T15:08:35;8.32;32.20
68578;SHT31;61668;45.388;11.784;2023-02-10T15:11:09;8.27;32.47
68578;SHT31;61668;45.388;11.784;2023-02-10T15:14:09;8.22;32.71
68578;SHT31;61668;45.388;11.784;2023-02-10T15:16:46;8.19;33.10
68578;SHT31;61668;45.388;11.784;2023-02-10T15:19:13;8.15;33.16
68578;SHT31;61668;45.388;11.784;2023-02-10T15:21:41;8.13;33.12
68578;SHT31;61668;45.388;11.784;2023-02-10T15:24:18;8.12;33.07
68578;SHT31;61668;45.388;11.784;2023-02-10T15:27:14;8.10;32.81
68578;SHT31;61668;45.388;11.784;2023-02-10T15:29:43;8.05;32.88
68578;SHT31;61668;45.388;11.784;2023-02-10T15:32:19;8.00;33.03
68578;SHT31;61668;45.388;11.784;2023-02-10T15:34:47;7.94;33.14
68578;SHT31;61668;45.388;11.784;2023-02-10T15:37:24;7.88;33.31
68578;SHT31;61668;45.388;11.784;2023-02-10T15:39:56;7.81;33.79
68578;SHT31;61668;45.388;11.784;2023-02-10T15:42:27;7.74;34.10
68578;SHT31;61668;45.388;11.784;2023-02-10T15:48:07;7.59;34.43
68578;SHT31;61668;45.388;11.784;2023-02-10T15:50:34;7.51;34.51
68578;SHT31;61668;45.388;11.784;2023-02-10T15:53:01;7.44;34.53
68578;SHT31;61668;45.388;11.784;2023-02-10T15:55:30;7.37;34.61
68578;SHT31;61668;45.388;11.784;2023-02-10T15:58:00;7.32;34.89
68578;SHT31;61668;45.388;11.784;2023-02-10T16:00:31;7.24;35.09
68578;SHT31;61668;45.388;11.784;2023-02-10T16:03:01;7.16;35.10
68578;SHT31;61668;45.388;11.784;2023-02-10T16:05:29;7.06;35.46
68578;SHT31;61668;45.388;11.784;2023-02-10T16:10:50;6.84;36.06
68578;SHT31;61668;45.388;11.784;2023-02-10T16:13:16;6.73;36.36
68578;SHT31;61668;45.388;11.784;2023-02-10T16:15:42;6.63;36.81
68578;SHT31;61668;45.388;11.784;2023-02-10T16:18:13;6.51;37.27
68578;SHT31;61668;45.388;11.784;2023-02-10T16:20:41;6.39;37.84
68578;SHT31;61668;45.388;11.784;2023-02-10T16:23:16;6.28;38.44
68578;SHT31;61668;45.388;11.784;2023-02-10T16:25:44;6.16;38.95
68578;SHT31;61668;45.388;11.784;2023-02-10T16:28:12;6.03;39.28
68578;SHT31;61668;45.388;11.784;2023-02-10T16:30:42;5.90;39.70
68578;SHT31;61668;45.388;11.784;2023-02-10T16:33:08;5.77;40.25
68578;SHT31;61668;45.388;11.784;2023-02-10T16:35:35;5.64;40.72
68578;SHT31;61668;45.388;11.784;2023-02-10T16:38:01;5.52;41.06
68578;SHT31;61668;45.388;11.784;2023-02-10T16:40:30;5.39;41.40
68578;SHT31;61668;45.388;11.784;2023-02-10T16:43:01;5.27;41.64
68578;SHT31;61668;45.388;11.784;2023-02-10T16:45:28;5.15;41.84
68578;SHT31;61668;45.388;11.784;2023-02-10T16:47:56;5.03;42.34
68578;SHT31;61668;45.388;11.784;2023-02-10T16:53:05;4.78;43.18
68578;SHT31;61668;45.388;11.784;2023-02-10T16:55:34;4.65;43.47
68578;SHT31;61668;45.388;11.784;2023-02-10T16:58:02;4.55;43.76
68578;SHT31;61668;45.388;11.784;2023-02-10T17:00:29;4.43;43.93
68578;SHT31;61668;45.388;11.784;2023-02-10T17:02:56;4.32;44.19
68578;SHT31;61668;45.388;11.784;2023-02-10T17:05:23;4.22;44.41
68578;SHT31;61668;45.388;11.784;2023-02-10T17:07:49;4.13;44.61
68578;SHT31;61668;45.388;11.784;2023-02-10T17:10:19;4.03;45.06
68578;SHT31;61668;45.388;11.784;2023-02-10T17:12:48;3.92;45.26
68578;SHT31;61668;45.388;11.784;2023-02-10T17:15:14;3.85;45.26
68578;SHT31;61668;45.388;11.784;2023-02-10T17:17:43;3.80;45.21
68578;SHT31;61668;45.388;11.784;2023-02-10T17:20:30;3.74;45.31
68578;SHT31;61668;45.388;11.784;2023-02-10T17:22:58;3.68;45.47
68578;SHT31;61668;45.388;11.784;2023-02-10T17:25:27;3.60;45.60
68578;SHT31;61668;45.388;11.784;2023-02-10T17:27:55;3.54;45.76
68578;SHT31;61668;45.388;11.784;2023-02-10T17:30:22;3.47;46.01
68578;SHT31;61668;45.388;11.784;2023-02-10T17:32:49;3.41;46.30
68578;SHT31;61668;45.388;11.784;2023-02-10T17:35:17;3.35;46.40
68578;SHT31;61668;45.388;11.784;2023-02-10T17:37:46;3.29;46.40
68578;SHT31;61668;45.388;11.784;2023-02-10T17:40:14;3.21;46.46
68578;SHT31;61668;45.388;11.784;2023-02-10T17:42:49;3.15;46.92
68578;SHT31;61668;45.388;11.784;2023-02-10T17:45:16;3.10;47.26
68578;SHT31;61668;45.388;11.784;2023-02-10T17:47:44;3.05;47.17
68578;SHT31;61668;45.388;11.784;2023-02-10T17:50:11;3.04;47.03
68578;SHT31;61668;45.388;11.784;2023-02-10T17:52:37;3.03;46.92
68578;SHT31;61668;45.388;11.784;2023-02-10T17:55:03;3.00;46.95
68578;SHT31;61668;45.388;11.784;2023-02-10T17:57:30;2.98;47.01
68578;SHT31;61668;45.388;11.784;2023-02-10T17:59:55;2.94;47.14
68578;SHT31;61668;45.388;11.784;2023-02-10T18:02:21;2.89;47.44
68578;SHT31;61668;45.388;11.784;2023-02-10T18:04:47;2.83;47.73
68578;SHT31;61668;45.388;11.784;2023-02-10T18:07:14;2.77;47.97
68578;SHT31;61668;45.388;11.784;2023-02-10T18:09:42;2.70;48.20
68578;SHT31;61668;45.388;11.784;2023-02-10T18:12:08;2.64;48.46
68578;SHT31;61668;45.388;11.784;2023-02-10T18:14:36;2.59;48.71
68578;SHT31;61668;45.388;11.784;2023-02-10T18:17:04;2.55;48.94
68578;SHT31;61668;45.388;11.784;2023-02-10T18:19:30;2.51;49.16
68578;SHT31;61668;45.388;11.784;2023-02-10T18:21:56;2.48;49.38
68578;SHT31;61668;45.388;11.784;2023-02-10T18:24:21;2.44;49.63
68578;SHT31;61668;45.388;11.784;2023-02-10T18:26:48;2.40;49.91
68578;SHT31;61668;45.388;11.784;2023-02-10T18:29:14;2.36;50.01
68578;SHT31;61668;45.388;11.784;2023-02-10T18:31:40;2.30;50.08
68578;SHT31;61668;45.388;11.784;2023-02-10T18:34:05;2.24;50.17
68578;SHT31;61668;45.388;11.784;2023-02-10T18:36:32;2.18;50.37
68578;SHT31;61668;45.388;11.784;2023-02-10T18:38:58;2.13;50.55
68578;SHT31;61668;45.388;11.784;2023-02-10T18:41:24;2.09;50.67
68578;SHT31;61668;45.388;11.784;2023-02-10T18:43:52;2.06;50.80
68578;SHT31;61668;45.388;11.784;2023-02-10T18:46:18;2.02;50.82
68578;SHT31;61668;45.388;11.784;2023-02-10T18:48:45;1.99;51.00
68578;SHT31;61668;45.388;11.784;2023-02-10T18:51:12;1.98;51.11
68578;SHT31;61668;45.388;11.784;2023-02-10T18:53:38;1.95;51.15